Time;durP1;ratioP1;P1;durP2;ratioP2;P2;SDS_P1;SDS_P2;PMS_P1;PMS_P2;Temp;Humidity;BMP_temperature;BMP_pressure;BME280_temperature;BME280_humidity;BME280_pressure;Samples;Min_cycle;Max_cycle;Signal;HPM_P1;HPM_P2
2023/01/13 00:02:08;;;;;;;15.98;1.70;;;;;;;;;;5011678;28;20038;-40
2023/01/13 00:04:35;;;;;;;10.48;1.77;;;;;;;;;;5011869;28;20480;-40
2023/01/13 00:07:02;;;;;;;8.38;1.83;;;;;;;;;;5012056;28;20022;-40
2023/01/13 00:09:29;;;;;;;7.45;1.70;;;;;;;;;;5011904;28;20033;-40
2023/01/13 00:11:56;;;;;;;10.20;1.75;;;;;;;;;;5011934;28;20030;-40
2023/01/13 00:14:25;;;;;;;14.05;2.05;;;;;;;;;;5011611;28;20388;-40
2023/01/13 00:16:52;;;;;;;14.82;1.83;;;;;;;;;;5011831;28;20038;-40
2023/01/13 00:19:19;;;;;;;16.13;2.58;;;;;;;;;;5011849;28;20474;-40
2023/01/13 00:21:45;;;;;;;21.20;2.47;;;;;;;;;;5011800;28;20399;-40
2023/01/13 00:24:12;;;;;;;12.65;2.30;;;;;;;;;;5011669;28;20037;-39
2023/01/13 00:26:39;;;;;;;18.13;2.15;;;;;;;;;;5011878;28;20023;-40
2023/01/13 00:29:06;;;;;;;18.38;2.40;;;;;;;;;;5011529;28;20048;-40
2023/01/13 00:31:33;;;;;;;19.00;3.25;;;;;;;;;;5011764;28;20030;-40
2023/01/13 00:34:01;;;;;;;11.73;2.47;;;;;;;;;;5011590;28;20049;-40
2023/01/13 00:36:29;;;;;;;16.92;2.55;;;;;;;;;;5011210;28;20038;-40
2023/01/13 00:38:56;;;;;;;23.88;3.30;;;;;;;;;;5013788;28;20399;-42
2023/01/13 00:41:25;;;;;;;24.75;3.50;;;;;;;;;;5012812;28;20128;-43
2023/01/13 00:43:52;;;;;;;23.40;4.05;;;;;;;;;;5014709;28;20030;-47
2023/01/13 00:46:20;;;;;;;20.88;3.50;;;;;;;;;;5014153;28;20076;-40
2023/01/13 00:48:48;;;;;;;22.70;3.20;;;;;;;;;;5013248;28;20038;-40
2023/01/13 00:51:19;;;;;;;20.42;3.63;;;;;;;;;;5014033;28;20475;-41
2023/01/13 00:53:48;;;;;;;27.40;4.35;;;;;;;;;;5014918;28;20018;-41
2023/01/13 00:56:17;;;;;;;30.65;3.88;;;;;;;;;;5014884;28;20399;-42
2023/01/13 00:58:44;;;;;;;26.98;4.00;;;;;;;;;;5014308;28;20069;-40
2023/01/13 01:01:13;;;;;;;26.23;4.63;;;;;;;;;;5013775;28;20036;-42
2023/01/13 01:03:40;;;;;;;47.75;4.90;;;;;;;;;;5013487;28;20026;-40
2023/01/13 01:06:08;;;;;;;39.65;5.50;;;;;;;;;;5013474;28;20028;-40
2023/01/13 01:08:35;;;;;;;33.35;5.30;;;;;;;;;;5012738;28;20034;-42
2023/01/13 01:11:04;;;;;;;38.15;4.60;;;;;;;;;;5012878;28;20030;-41
2023/01/13 01:13:31;;;;;;;32.05;4.47;;;;;;;;;;5014288;28;20058;-40
2023/01/13 01:15:58;;;;;;;37.72;4.93;;;;;;;;;;5014497;28;20071;-41
2023/01/13 01:18:26;;;;;;;35.45;4.32;;;;;;;;;;5013457;28;20061;-44
2023/01/13 01:20:53;;;;;;;27.48;4.40;;;;;;;;;;5013112;28;20036;-41
2023/01/13 01:23:20;;;;;;;30.30;4.97;;;;;;;;;;5012738;28;20030;-40
2023/01/13 01:25:47;;;;;;;31.80;5.53;;;;;;;;;;5012781;28;20076;-42
2023/01/13 01:28:14;;;;;;;31.55;4.57;;;;;;;;;;5012353;28;20101;-41
2023/01/13 01:30:40;;;;;;;29.98;5.32;;;;;;;;;;5013892;28;20052;-41
2023/01/13 01:33:07;;;;;;;47.17;5.78;;;;;;;;;;5011409;28;20479;-42
2023/01/13 01:35:34;;;;;;;43.85;5.78;;;;;;;;;;5011967;28;20105;-42
2023/01/13 01:38:01;;;;;;;41.30;5.90;;;;;;;;;;5013145;28;20054;-41
2023/01/13 01:40:28;;;;;;;41.50;5.72;;;;;;;;;;5013105;28;20030;-41
2023/01/13 01:45:40;;;;;;;44.58;5.68;;;;;;;;;;5012191;28;20044;-40
2023/01/13 01:48:07;;;;;;;35.45;5.80;;;;;;;;;;5012337;28;20423;-41
2023/01/13 01:50:35;;;;;;;36.92;5.53;;;;;;;;;;5011346;28;20036;-43
2023/01/13 01:53:21;;;;;;;39.38;5.60;;;;;;;;;;5008639;28;20026;-41
2023/01/13 01:55:48;;;;;;;33.78;4.90;;;;;;;;;;4993216;28;20538;-41
2023/01/13 01:58:20;;;;;;;39.67;5.30;;;;;;;;;;5011041;28;20463;-42
2023/01/13 02:00:47;;;;;;;36.42;5.15;;;;;;;;;;5010835;28;20032;-45
2023/01/13 02:03:15;;;;;;;35.05;4.80;;;;;;;;;;5010556;28;20044;-42
2023/01/13 02:05:42;;;;;;;32.10;4.40;;;;;;;;;;5011098;28;20022;-43
2023/01/13 02:08:11;;;;;;;36.95;5.43;;;;;;;;;;5012194;28;20018;-42
2023/01/13 02:10:39;;;;;;;22.90;4.30;;;;;;;;;;5011486;28;20033;-41
2023/01/13 02:13:08;;;;;;;25.70;4.65;;;;;;;;;;5011707;28;20379;-41
2023/01/13 02:15:38;;;;;;;37.38;5.00;;;;;;;;;;5009567;28;20670;-43
2023/01/13 02:18:27;;;;;;;24.67;3.78;;;;;;;;;;5011913;28;20091;-43
2023/01/13 02:21:12;;;;;;;25.88;4.57;;;;;;;;;;5009661;28;20029;-41
2023/01/13 02:26:42;;;;;;;25.15;4.63;;;;;;;;;;5011805;28;20037;-40
2023/01/13 02:32:21;;;;;;;31.83;4.68;;;;;;;;;;5011220;28;20053;-41
2023/01/13 02:34:52;;;;;;;26.17;3.60;;;;;;;;;;4993957;28;20117;-40
2023/01/13 02:37:27;;;;;;;27.30;3.37;;;;;;;;;;5010911;28;20030;-42
2023/01/13 02:40:02;;;;;;;18.67;2.55;;;;;;;;;;5011257;28;20084;-40
2023/01/13 02:45:33;;;;;;;25.55;2.88;;;;;;;;;;5008022;28;20044;-40
2023/01/13 02:48:02;;;;;;;30.50;3.47;;;;;;;;;;5010112;28;20033;-39
2023/01/13 02:50:32;;;;;;;26.52;3.17;;;;;;;;;;5011701;28;20032;-41
2023/01/13 02:53:03;;;;;;;41.33;3.33;;;;;;;;;;4998535;28;20030;-51
2023/01/13 02:55:33;;;;;;;22.65;2.60;;;;;;;;;;5009606;28;20050;-48
2023/01/13 02:58:01;;;;;;;29.77;2.95;;;;;;;;;;5011275;28;20042;-48
2023/01/13 03:00:28;;;;;;;30.60;2.85;;;;;;;;;;5010864;28;20030;-47
2023/01/13 03:02:55;;;;;;;19.67;2.38;;;;;;;;;;4991206;28;20053;-48
2023/01/13 03:05:22;;;;;;;35.38;3.58;;;;;;;;;;5009419;28;20035;-51
2023/01/13 03:07:55;;;;;;;38.08;3.20;;;;;;;;;;5010824;28;20026;-52
2023/01/13 03:10:28;;;;;;;32.45;3.17;;;;;;;;;;4992384;28;20026;-46
2023/01/13 03:12:58;;;;;;;17.15;2.33;;;;;;;;;;5010029;28;20018;-50
2023/01/13 03:15:27;;;;;;;15.93;2.28;;;;;;;;;;5010468;28;20052;-50
2023/01/13 03:18:12;;;;;;;22.02;2.58;;;;;;;;;;5010925;28;20100;-48
2023/01/13 03:20:44;;;;;;;25.10;2.67;;;;;;;;;;5010660;28;20107;-54
2023/01/13 03:23:15;;;;;;;16.75;1.92;;;;;;;;;;5010142;28;20032;-47
2023/01/13 03:26:02;;;;;;;15.85;1.98;;;;;;;;;;5009371;28;20515;-49
2023/01/13 03:28:35;;;;;;;17.60;2.08;;;;;;;;;;4979454;28;20050;-49
2023/01/13 03:31:05;;;;;;;13.73;2.15;;;;;;;;;;5010610;28;20499;-51
2023/01/13 03:33:39;;;;;;;17.75;1.60;;;;;;;;;;5010555;28;20544;-57
2023/01/13 03:36:09;;;;;;;16.48;2.38;;;;;;;;;;5009531;28;20033;-55
2023/01/13 03:38:36;;;;;;;21.42;1.65;;;;;;;;;;5007347;28;20045;-51
2023/01/13 03:41:09;;;;;;;22.73;2.25;;;;;;;;;;5010796;28;20057;-48
2023/01/13 03:46:39;;;;;;;32.55;3.42;;;;;;;;;;5012172;28;20151;-45
2023/01/13 03:49:08;;;;;;;28.92;2.97;;;;;;;;;;5011552;28;20075;-46
2023/01/13 03:51:39;;;;;;;26.15;2.72;;;;;;;;;;5010693;28;20075;-45
2023/01/13 03:54:08;;;;;;;48.85;4.88;;;;;;;;;;5011049;28;20483;-44
2023/01/13 03:56:43;;;;;;;355.25;30.70;;;;;;;;;;5010564;28;20054;-44
2023/01/13 03:59:13;;;;;;;244.63;22.05;;;;;;;;;;5010829;28;20034;-44
2023/01/13 04:02:09;;;;;;;174.25;16.48;;;;;;;;;;5011219;28;20026;-44
2023/01/13 04:04:40;;;;;;;106.00;10.73;;;;;;;;;;4996303;28;20038;-44
2023/01/13 04:07:13;;;;;;;94.05;9.38;;;;;;;;;;5011145;28;20030;-43
2023/01/13 04:09:50;;;;;;;74.88;7.75;;;;;;;;;;5011641;28;20026;-44
2023/01/13 04:12:23;;;;;;;50.45;5.38;;;;;;;;;;5012161;28;20025;-44
2023/01/13 04:14:51;;;;;;;69.88;7.22;;;;;;;;;;5015421;28;20084;-44
2023/01/13 04:17:18;;;;;;;44.67;4.35;;;;;;;;;;5015713;28;20749;-44
2023/01/13 04:19:45;;;;;;;30.02;3.10;;;;;;;;;;5015567;28;20034;-43
2023/01/13 04:22:12;;;;;;;23.60;2.53;;;;;;;;;;5015382;28;20422;-44
2023/01/13 04:24:39;;;;;;;28.50;2.60;;;;;;;;;;5015228;28;20097;-44
2023/01/13 04:27:06;;;;;;;27.55;2.47;;;;;;;;;;5015329;28;20022;-43
2023/01/13 04:29:33;;;;;;;17.30;2.30;;;;;;;;;;5015373;28;20034;-44
2023/01/13 04:32:00;;;;;;;29.80;2.78;;;;;;;;;;5015434;28;20480;-44
2023/01/13 04:34:27;;;;;;;20.75;2.50;;;;;;;;;;5014969;28;20079;-43
2023/01/13 04:36:54;;;;;;;20.48;2.30;;;;;;;;;;5015385;28;20029;-43
2023/01/13 04:39:21;;;;;;;15.02;1.98;;;;;;;;;;4997610;28;20026;-44
2023/01/13 04:41:57;;;;;;;24.60;2.03;;;;;;;;;;5015313;28;20025;-43
2023/01/13 04:44:24;;;;;;;21.10;1.60;;;;;;;;;;5015089;28;20052;-44
2023/01/13 04:46:52;;;;;;;14.38;1.42;;;;;;;;;;5014821;28;20430;-43
2023/01/13 04:49:19;;;;;;;9.15;1.63;;;;;;;;;;5015159;28;20053;-43
2023/01/13 04:51:46;;;;;;;11.77;1.27;;;;;;;;;;5015086;28;20506;-43
2023/01/13 04:54:13;;;;;;;9.60;1.13;;;;;;;;;;5014954;28;20026;-43
2023/01/13 04:56:40;;;;;;;9.00;1.17;;;;;;;;;;5014922;28;20030;-43
2023/01/13 04:59:07;;;;;;;18.02;2.15;;;;;;;;;;5014970;28;20061;-43
2023/01/13 05:01:34;;;;;;;10.55;1.38;;;;;;;;;;5014871;28;20041;-45
2023/01/13 05:04:02;;;;;;;14.40;1.63;;;;;;;;;;4997067;28;20037;-44
2023/01/13 05:06:29;;;;;;;9.38;1.02;;;;;;;;;;5014874;28;20025;-43
2023/01/13 05:08:56;;;;;;;10.88;1.33;;;;;;;;;;5014722;28;20048;-44
2023/01/13 05:17:00;;;;;;;10.45;1.23;;;;;;;;;;5014734;28;20083;-44
2023/01/13 05:19:40;;;;;;;5.55;1.20;;;;;;;;;;5014613;28;20109;-43
2023/01/13 05:27:37;;;;;;;7.45;1.15;;;;;;;;;;5014200;28;20550;-43
2023/01/13 05:30:05;;;;;;;4.30;1.05;;;;;;;;;;5014436;28;20032;-44
2023/01/13 05:32:32;;;;;;;7.95;1.23;;;;;;;;;;5014342;28;20038;-44
2023/01/13 05:34:59;;;;;;;28.13;2.30;;;;;;;;;;5014278;28;20029;-43
2023/01/13 05:37:26;;;;;;;19.90;2.28;;;;;;;;;;5014232;28;20034;-44
2023/01/13 05:45:24;;;;;;;17.25;1.60;;;;;;;;;;5014143;28;20065;-43
2023/01/13 05:47:51;;;;;;;11.63;1.90;;;;;;;;;;5014115;28;20408;-43
2023/01/13 05:50:18;;;;;;;11.93;1.85;;;;;;;;;;5014029;28;20376;-44
2023/01/13 05:52:45;;;;;;;16.77;1.70;;;;;;;;;;5014068;28;20101;-43
2023/01/13 05:55:13;;;;;;;17.30;1.67;;;;;;;;;;5013929;28;20028;-43
2023/01/13 05:57:40;;;;;;;14.18;1.40;;;;;;;;;;5013782;28;20033;-43
2023/01/13 06:00:08;;;;;;;17.77;1.77;;;;;;;;;;5013809;28;20487;-44
2023/01/13 06:02:35;;;;;;;10.52;1.65;;;;;;;;;;5011798;28;20061;-44
2023/01/13 06:05:02;;;;;;;14.07;1.40;;;;;;;;;;5013480;28;20160;-43
2023/01/13 06:07:29;;;;;;;10.60;1.30;;;;;;;;;;5013744;28;20061;-43
2023/01/13 06:09:56;;;;;;;10.85;1.20;;;;;;;;;;5013684;28;20021;-43
2023/01/13 06:12:23;;;;;;;10.05;0.95;;;;;;;;;;5013579;28;20468;-43
2023/01/13 06:14:50;;;;;;;19.05;1.13;;;;;;;;;;5013546;28;20033;-43
2023/01/13 06:17:17;;;;;;;8.00;0.90;;;;;;;;;;5013534;28;20029;-43
2023/01/13 06:19:44;;;;;;;13.60;1.20;;;;;;;;;;5013454;28;20040;-44
2023/01/13 06:22:18;;;;;;;10.90;1.90;;;;;;;;;;5013448;28;20069;-43
2023/01/13 06:24:45;;;;;;;22.00;2.40;;;;;;;;;;5013055;28;20034;-44
2023/01/13 06:27:13;;;;;;;14.25;1.95;;;;;;;;;;5013127;28;20045;-44
2023/01/13 06:29:40;;;;;;;11.75;1.30;;;;;;;;;;5013053;28;20085;-44
2023/01/13 06:32:14;;;;;;;12.10;1.42;;;;;;;;;;5013055;28;20033;-44
2023/01/13 06:34:42;;;;;;;11.65;1.73;;;;;;;;;;5013092;28;20033;-44
2023/01/13 06:37:11;;;;;;;12.82;1.52;;;;;;;;;;5012924;28;20022;-44
2023/01/13 06:39:39;;;;;;;11.50;1.48;;;;;;;;;;5012972;28;20495;-44
2023/01/13 06:44:51;;;;;;;15.05;1.70;;;;;;;;;;5012916;28;20028;-44
2023/01/13 06:47:21;;;;;;;11.10;1.50;;;;;;;;;;5013008;28;20503;-44
2023/01/13 06:49:48;;;;;;;7.40;1.50;;;;;;;;;;5012817;28;20036;-44
2023/01/13 06:52:15;;;;;;;10.93;1.50;;;;;;;;;;5012882;28;20475;-44
2023/01/13 06:54:42;;;;;;;11.57;1.35;;;;;;;;;;5012796;28;20018;-44
2023/01/13 06:57:09;;;;;;;11.65;1.85;;;;;;;;;;5012746;28;20045;-44
2023/01/13 06:59:36;;;;;;;14.00;1.52;;;;;;;;;;5012716;28;20026;-44
2023/01/13 07:02:03;;;;;;;8.45;1.60;;;;;;;;;;5012799;28;20033;-44
2023/01/13 07:04:30;;;;;;;15.68;1.77;;;;;;;;;;5012607;28;20101;-44
2023/01/13 07:06:57;;;;;;;15.15;1.33;;;;;;;;;;5012695;28;20053;-45
2023/01/13 07:09:24;;;;;;;9.25;1.40;;;;;;;;;;5012629;28;20030;-45
2023/01/13 07:11:51;;;;;;;8.45;1.42;;;;;;;;;;5012510;28;20040;-44
2023/01/13 07:17:04;;;;;;;6.85;1.33;;;;;;;;;;5012578;28;20403;-43
2023/01/13 07:19:31;;;;;;;6.55;1.20;;;;;;;;;;5012395;28;20026;-44
2023/01/13 07:21:58;;;;;;;14.68;1.55;;;;;;;;;;5012450;28;20021;-44
2023/01/13 07:24:25;;;;;;;15.02;1.23;;;;;;;;;;5012316;28;20026;-44
2023/01/13 07:26:52;;;;;;;9.25;1.15;;;;;;;;;;5012368;28;20022;-44
2023/01/13 07:29:20;;;;;;;12.20;1.25;;;;;;;;;;5012221;28;20049;-44
2023/01/13 07:31:47;;;;;;;16.38;1.52;;;;;;;;;;5012276;28;20029;-43
2023/01/13 07:34:14;;;;;;;13.48;1.75;;;;;;;;;;5012237;28;20022;-44
2023/01/13 07:36:41;;;;;;;21.20;2.22;;;;;;;;;;5012338;28;20117;-43
2023/01/13 07:39:08;;;;;;;10.18;1.67;;;;;;;;;;5012196;28;20468;-44
2023/01/13 07:44:20;;;;;;;23.17;1.92;;;;;;;;;;5012116;28;20438;-44
2023/01/13 07:46:47;;;;;;;12.82;1.55;;;;;;;;;;5012274;28;20105;-43
2023/01/13 07:49:14;;;;;;;14.93;2.30;;;;;;;;;;5015877;28;20612;-43
2023/01/13 07:51:41;;;;;;;18.63;2.22;;;;;;;;;;5016112;28;20080;-43
2023/01/13 07:54:08;;;;;;;17.20;2.40;;;;;;;;;;5016076;28;20030;-44
2023/01/13 07:56:35;;;;;;;14.80;1.73;;;;;;;;;;5016251;28;20037;-43
2023/01/13 07:59:02;;;;;;;12.18;1.60;;;;;;;;;;5015880;28;20034;-43
2023/01/13 08:01:30;;;;;;;11.13;1.52;;;;;;;;;;5016304;28;20447;-44
2023/01/13 08:03:58;;;;;;;13.02;1.75;;;;;;;;;;5015827;28;20490;-43
2023/01/13 08:06:25;;;;;;;5.90;0.80;;;;;;;;;;5015962;28;20033;-43
2023/01/13 08:08:52;;;;;;;8.30;1.30;;;;;;;;;;5015968;28;20026;-43
2023/01/13 08:11:19;;;;;;;17.05;1.60;;;;;;;;;;5015854;28;20033;-43
2023/01/13 08:13:46;;;;;;;11.52;1.63;;;;;;;;;;5015768;28;20045;-44
2023/01/13 08:16:14;;;;;;;9.38;1.30;;;;;;;;;;5015819;28;20160;-43
2023/01/13 08:18:41;;;;;;;8.43;1.13;;;;;;;;;;5015694;28;20045;-43
2023/01/13 08:21:13;;;;;;;11.73;1.55;;;;;;;;;;5015774;28;20133;-44
2023/01/13 08:23:40;;;;;;;12.97;1.33;;;;;;;;;;5015564;28;20102;-43
2023/01/13 08:26:09;;;;;;;11.57;1.20;;;;;;;;;;5015603;28;20033;-44
2023/01/13 08:28:36;;;;;;;10.45;1.20;;;;;;;;;;5015405;28;20566;-44
2023/01/13 08:31:05;;;;;;;8.38;1.02;;;;;;;;;;5015508;28;20026;-44
2023/01/13 08:33:32;;;;;;;12.52;1.42;;;;;;;;;;5015395;28;20042;-43
2023/01/13 08:36:02;;;;;;;12.85;1.85;;;;;;;;;;5015479;28;20088;-43
2023/01/13 08:38:29;;;;;;;10.73;1.40;;;;;;;;;;5015309;28;20042;-43
2023/01/13 08:40:56;;;;;;;9.02;1.38;;;;;;;;;;5015385;28;20033;-43
2023/01/13 08:43:23;;;;;;;6.22;1.55;;;;;;;;;;5015146;28;20500;-43
2023/01/13 08:45:59;;;;;;;15.55;1.40;;;;;;;;;;5015265;28;20030;-43
2023/01/13 08:48:27;;;;;;;9.85;1.42;;;;;;;;;;5015223;28;20088;-43
2023/01/13 08:50:54;;;;;;;13.13;1.38;;;;;;;;;;5014997;28;20060;-43
2023/01/13 08:53:21;;;;;;;11.15;1.38;;;;;;;;;;5015040;28;20076;-43
2023/01/13 08:55:48;;;;;;;13.40;1.50;;;;;;;;;;5015090;28;20034;-43
2023/01/13 08:58:15;;;;;;;15.85;2.05;;;;;;;;;;5014892;28;20504;-43
2023/01/13 09:00:42;;;;;;;21.83;1.85;;;;;;;;;;5014966;28;20030;-43
2023/01/13 09:03:09;;;;;;;29.77;2.83;;;;;;;;;;5014915;28;20025;-43
2023/01/13 09:05:36;;;;;;;68.50;4.97;;;;;;;;;;5014859;28;20118;-43
2023/01/13 09:08:03;;;;;;;25.73;2.95;;;;;;;;;;5014898;28;20033;-43
2023/01/13 09:10:31;;;;;;;29.55;3.75;;;;;;;;;;5014822;28;20079;-43
2023/01/13 09:13:14;;;;;;;31.70;3.90;;;;;;;;;;5014639;28;20111;-43
2023/01/13 09:15:42;;;;;;;37.15;3.38;;;;;;;;;;5014605;28;20118;-43
2023/01/13 09:18:09;;;;;;;29.73;3.35;;;;;;;;;;5014573;28;20037;-43
2023/01/13 09:20:36;;;;;;;43.50;5.18;;;;;;;;;;5014550;28;20105;-43
2023/01/13 09:23:04;;;;;;;35.63;4.15;;;;;;;;;;5014312;28;20453;-43
2023/01/13 09:25:31;;;;;;;51.92;5.35;;;;;;;;;;5014499;28;20090;-43
2023/01/13 09:27:58;;;;;;;39.03;4.13;;;;;;;;;;5014240;28;20120;-43
2023/01/13 09:30:25;;;;;;;36.88;4.22;;;;;;;;;;5013005;28;20061;-43
2023/01/13 09:34:58;;;;;;;35.58;3.88;;;;;;;;;;5014315;28;20838;-43
2023/01/13 09:35:38;;;;;;;21.40;2.80;;;;;;;;;;5014170;28;20034;-43
2023/01/13 09:38:06;;;;;;;40.50;3.28;;;;;;;;;;5014180;28;20076;-43
2023/01/13 09:40:33;;;;;;;21.48;2.72;;;;;;;;;;5013701;28;20103;-43
2023/01/13 09:43:54;;;;;;;44.03;4.28;;;;;;;;;;5014110;28;20029;-43
2023/01/13 09:46:05;;;;;;;46.60;4.57;;;;;;;;;;5006111;28;20038;-44
2023/01/13 09:48:50;;;;;;;61.40;5.07;;;;;;;;;;5013979;28;20096;-43
2023/01/13 09:51:40;;;;;;;57.72;6.35;;;;;;;;;;5013955;28;20037;-43
2023/01/13 09:54:22;;;;;;;81.55;7.47;;;;;;;;;;5003886;28;20033;-43
2023/01/13 09:56:49;;;;;;;135.60;12.40;;;;;;;;;;5013891;28;20030;-43
2023/01/13 09:59:16;;;;;;;137.07;11.55;;;;;;;;;;5013735;28;20042;-43
2023/01/13 10:01:46;;;;;;;182.68;16.73;;;;;;;;;;5013843;28;20036;-44
2023/01/13 10:04:14;;;;;;;156.63;14.68;;;;;;;;;;5013760;28;20480;-43
2023/01/13 10:06:48;;;;;;;150.35;15.57;;;;;;;;;;5013764;28;20034;-43
2023/01/13 10:09:20;;;;;;;114.85;11.48;;;;;;;;;;5013719;28;20030;-43
2023/01/13 10:14:33;;;;;;;96.80;8.57;;;;;;;;;;5013784;28;20088;-43
2023/01/13 10:17:21;;;;;;;55.67;7.25;;;;;;;;;;5013411;28;20026;-43
2023/01/13 10:20:06;;;;;;;54.33;6.00;;;;;;;;;;5013418;28;20088;-43
2023/01/13 10:22:42;;;;;;;42.30;5.60;;;;;;;;;;5013423;28;20030;-43
2023/01/13 10:25:27;;;;;;;43.53;5.28;;;;;;;;;;5013390;28;20518;-43
2023/01/13 10:27:56;;;;;;;41.97;5.13;;;;;;;;;;5013131;28;20046;-43
2023/01/13 10:30:30;;;;;;;36.75;4.82;;;;;;;;;;5012874;28;20022;-44
2023/01/13 10:32:58;;;;;;;43.67;5.25;;;;;;;;;;5011277;28;20487;-44
2023/01/13 10:35:43;;;;;;;37.38;5.50;;;;;;;;;;5012747;28;20037;-43
2023/01/13 10:38:21;;;;;;;50.53;6.60;;;;;;;;;;5012946;28;20037;-43
2023/01/13 10:40:49;;;;;;;50.58;5.95;;;;;;;;;;5013051;28;20037;-43
2023/01/13 10:43:16;;;;;;;46.63;7.50;;;;;;;;;;4995120;28;20391;-43
2023/01/13 10:45:51;;;;;;;53.78;6.85;;;;;;;;;;4995115;28;20041;-43
2023/01/13 10:48:18;;;;;;;68.60;7.68;;;;;;;;;;5012814;28;20030;-43
2023/01/13 10:50:47;;;;;;;36.78;5.95;;;;;;;;;;5012993;28;20025;-43
2023/01/13 10:53:24;;;;;;;66.43;7.60;;;;;;;;;;5012710;28;20033;-44
2023/01/13 10:56:01;;;;;;;60.65;7.63;;;;;;;;;;5012809;28;20033;-43
2023/01/13 10:58:28;;;;;;;49.38;5.65;;;;;;;;;;5012776;28;20535;-43
2023/01/13 11:00:59;;;;;;;35.45;4.85;;;;;;;;;;5012814;28;20499;-43
2023/01/13 11:03:27;;;;;;;39.00;5.15;;;;;;;;;;5012584;28;20113;-44
2023/01/13 11:05:54;;;;;;;58.65;6.18;;;;;;;;;;5011911;28;20040;-43
2023/01/13 11:08:26;;;;;;;30.25;4.47;;;;;;;;;;4994575;28;20105;-44
2023/01/13 11:10:54;;;;;;;67.47;8.05;;;;;;;;;;5012313;28;20443;-41
2023/01/13 11:13:24;;;;;;;84.07;7.22;;;;;;;;;;5011713;28;20025;-41
2023/01/13 11:15:57;;;;;;;49.08;7.70;;;;;;;;;;5011588;28;20026;-49
2023/01/13 11:18:50;;;;;;;71.25;7.53;;;;;;;;;;5011641;28;20044;-40
2023/01/13 11:21:21;;;;;;;60.17;6.43;;;;;;;;;;5011926;28;20092;-46
2023/01/13 11:23:50;;;;;;;387.95;21.13;;;;;;;;;;5011317;28;20479;-43
2023/01/13 11:26:36;;;;;;;105.30;7.93;;;;;;;;;;5008860;28;20030;-42
2023/01/13 11:29:11;;;;;;;101.32;7.70;;;;;;;;;;5008923;28;20141;-43
2023/01/13 11:31:44;;;;;;;207.43;12.77;;;;;;;;;;5011365;28;20034;-44
2023/01/13 11:34:26;;;;;;;87.80;7.70;;;;;;;;;;5008752;28;20045;-40
2023/01/13 11:36:55;;;;;;;72.20;6.53;;;;;;;;;;5011775;28;20467;-42
2023/01/13 11:39:40;;;;;;;69.57;6.18;;;;;;;;;;5011168;28;20073;-42
2023/01/13 11:42:20;;;;;;;56.75;5.43;;;;;;;;;;5008833;28;20480;-42
2023/01/13 11:45:09;;;;;;;47.45;5.40;;;;;;;;;;5008745;28;20026;-43
2023/01/13 11:47:37;;;;;;;86.35;8.35;;;;;;;;;;5003033;28;20121;-47
2023/01/13 11:50:04;;;;;;;133.18;9.85;;;;;;;;;;5010919;28;20026;-46
2023/01/13 11:52:38;;;;;;;94.65;9.35;;;;;;;;;;5007440;28;20044;-58
2023/01/13 11:55:10;;;;;;;74.53;7.63;;;;;;;;;;5005999;28;20081;-51
2023/01/13 11:57:55;;;;;;;53.25;6.28;;;;;;;;;;5010944;28;20046;-46
2023/01/13 12:00:27;;;;;;;61.03;7.35;;;;;;;;;;5009478;28;20037;-46
2023/01/13 12:03:09;;;;;;;55.85;6.00;;;;;;;;;;5010828;28;20040;-46
2023/01/13 12:05:38;;;;;;;39.83;4.97;;;;;;;;;;5010469;28;20116;-46
2023/01/13 12:08:14;;;;;;;33.60;4.20;;;;;;;;;;5011510;28;20098;-46
2023/01/13 12:10:41;;;;;;;34.17;4.18;;;;;;;;;;5011301;28;20073;-48
2023/01/13 12:13:14;;;;;;;20.35;3.45;;;;;;;;;;5010677;28;20029;-46
2023/01/13 12:15:50;;;;;;;30.05;3.67;;;;;;;;;;5010805;28;20042;-48
2023/01/13 12:18:35;;;;;;;35.53;3.35;;;;;;;;;;4991952;28;20034;-47
2023/01/13 12:21:08;;;;;;;21.63;3.80;;;;;;;;;;4991943;28;20161;-48
2023/01/13 12:23:38;;;;;;;22.88;3.92;;;;;;;;;;4991987;28;20026;-48
2023/01/13 12:26:07;;;;;;;32.35;4.88;;;;;;;;;;4991950;28;20030;-48
2023/01/13 12:28:40;;;;;;;32.70;4.68;;;;;;;;;;4991685;28;20046;-47
2023/01/13 12:31:08;;;;;;;44.80;5.32;;;;;;;;;;5000860;28;20057;-43
2023/01/13 12:33:51;;;;;;;33.70;4.60;;;;;;;;;;4992614;28;20030;-43
2023/01/13 12:36:36;;;;;;;51.42;4.43;;;;;;;;;;4995419;28;20022;-42
2023/01/13 12:39:16;;;;;;;37.63;4.88;;;;;;;;;;4995230;28;20053;-42
2023/01/13 12:44:59;;;;;;;74.32;8.35;;;;;;;;;;4995656;28;20044;-42
2023/01/13 12:47:48;;;;;;;76.93;8.25;;;;;;;;;;4994765;28;20158;-42
2023/01/13 12:50:23;;;;;;;78.57;8.02;;;;;;;;;;4995374;28;20054;-42
2023/01/13 12:52:51;;;;;;;55.40;6.53;;;;;;;;;;5000282;28;20103;-42
2023/01/13 13:58:35;;;;;;;20.02;3.55;;;;;;;;;;5130038;27;20416;-49
2023/01/13 14:01:04;;;;;;;25.10;3.75;;;;;;;;;;5113490;28;20400;-49
2023/01/13 14:03:32;;;;;;;33.92;4.72;;;;;;;;;;5115093;28;20031;-49
2023/01/13 14:06:04;;;;;;;33.22;4.47;;;;;;;;;;5129445;28;20096;-48
2023/01/13 14:08:33;;;;;;;34.75;3.95;;;;;;;;;;5129395;28;20114;-47
2023/01/13 14:11:01;;;;;;;33.97;4.93;;;;;;;;;;5129385;28;20027;-47
2023/01/13 14:13:28;;;;;;;32.05;4.47;;;;;;;;;;5129541;28;20416;-47
2023/01/13 14:15:57;;;;;;;25.45;3.85;;;;;;;;;;5128978;28;20463;-47
2023/01/13 14:18:25;;;;;;;48.10;4.80;;;;;;;;;;5129207;28;20062;-47
2023/01/13 14:20:58;;;;;;;30.98;4.78;;;;;;;;;;5129232;28;20038;-50
2023/01/13 14:23:29;;;;;;;27.65;3.90;;;;;;;;;;5129248;28;20110;-47
2023/01/13 14:26:01;;;;;;;25.67;3.58;;;;;;;;;;5128973;28;20081;-48
2023/01/13 14:28:32;;;;;;;19.23;3.40;;;;;;;;;;5128719;28;20031;-48
2023/01/13 14:31:00;;;;;;;21.33;3.10;;;;;;;;;;5129366;28;20039;-48
2023/01/13 14:33:33;;;;;;;33.00;4.32;;;;;;;;;;5128912;28;20032;-47
2023/01/13 14:36:14;;;;;;;44.88;5.43;;;;;;;;;;5128644;28;20035;-45
2023/01/13 14:38:42;;;;;;;49.72;5.75;;;;;;;;;;5129026;28;20118;-47
2023/01/13 14:41:19;;;;;;;55.25;5.70;;;;;;;;;;5128913;28;20034;-46
2023/01/13 14:43:46;;;;;;;61.47;7.00;;;;;;;;;;5129253;28;20025;-46
2023/01/13 14:46:14;;;;;;;41.45;5.90;;;;;;;;;;5128897;28;20666;-46
2023/01/13 14:48:45;;;;;;;61.15;7.03;;;;;;;;;;5129036;28;20030;-46
2023/01/13 14:51:20;;;;;;;45.97;6.80;;;;;;;;;;5129176;28;20059;-46
2023/01/13 14:53:47;;;;;;;53.67;7.13;;;;;;;;;;5129016;28;20026;-46
2023/01/13 14:56:32;;;;;;;50.92;6.95;;;;;;;;;;5128446;28;20054;-45
2023/01/13 14:59:02;;;;;;;66.13;8.45;;;;;;;;;;5127395;27;20058;-43
2023/01/13 15:01:35;;;;;;;58.40;7.30;;;;;;;;;;5135716;27;20068;-43
2023/01/13 15:04:18;;;;;;;44.30;7.30;;;;;;;;;;5135764;27;20049;-44
2023/01/13 15:06:49;;;;;;;54.25;6.95;;;;;;;;;;5135570;27;20034;-42
2023/01/13 15:09:23;;;;;;;46.63;7.03;;;;;;;;;;5135533;27;20031;-43
2023/01/13 15:11:53;;;;;;;38.25;6.32;;;;;;;;;;5135286;27;20066;-43
2023/01/13 15:14:24;;;;;;;38.05;6.88;;;;;;;;;;5135345;27;20038;-43
2023/01/13 15:16:51;;;;;;;39.97;6.03;;;;;;;;;;5135262;27;20456;-43
2023/01/13 15:19:18;;;;;;;38.88;6.18;;;;;;;;;;5135470;27;20102;-42
2023/01/13 15:21:45;;;;;;;40.38;5.25;;;;;;;;;;5135212;27;20027;-43
2023/01/13 15:24:11;;;;;;;37.35;5.65;;;;;;;;;;5135111;27;20087;-43
2023/01/13 15:26:38;;;;;;;40.53;5.35;;;;;;;;;;5134921;27;20059;-43
2023/01/13 15:29:10;;;;;;;34.83;5.50;;;;;;;;;;5135207;27;20427;-43
2023/01/13 15:31:37;;;;;;;32.03;5.60;;;;;;;;;;5135020;27;20023;-43
2023/01/13 15:34:04;;;;;;;37.80;5.78;;;;;;;;;;5134870;27;20019;-43
2023/01/13 15:36:32;;;;;;;42.08;5.15;;;;;;;;;;5134943;27;20031;-44
2023/01/13 15:39:00;;;;;;;36.10;6.28;;;;;;;;;;5134960;27;20365;-43
2023/01/13 15:46:59;;;;;;;41.78;5.25;;;;;;;;;;5135361;27;20053;-42
2023/01/13 15:49:33;;;;;;;29.00;5.47;;;;;;;;;;5135014;27;20495;-42
2023/01/13 15:52:20;;;;;;;39.60;6.18;;;;;;;;;;5135051;27;20160;-42
2023/01/13 15:54:47;;;;;;;37.30;6.10;;;;;;;;;;5134809;27;20434;-42
2023/01/13 15:57:21;;;;;;;37.38;5.07;;;;;;;;;;5134383;27;20059;-44
2023/01/13 15:59:48;;;;;;;38.72;6.38;;;;;;;;;;5134467;27;20092;-42
2023/01/13 16:02:17;;;;;;;32.33;5.88;;;;;;;;;;5134898;27;20596;-42
2023/01/13 16:04:44;;;;;;;36.60;5.63;;;;;;;;;;5134611;27;20042;-42
2023/01/13 16:07:16;;;;;;;38.28;5.93;;;;;;;;;;5133774;27;20023;-42
2023/01/13 16:09:44;;;;;;;30.55;5.18;;;;;;;;;;5133529;27;20034;-42
2023/01/13 16:12:11;;;;;;;27.20;4.90;;;;;;;;;;5134665;27;20030;-42
2023/01/13 16:14:38;;;;;;;26.25;4.85;;;;;;;;;;5134133;27;20045;-42
2023/01/13 16:17:16;;;;;;;27.92;4.75;;;;;;;;;;5134177;27;20240;-42
2023/01/13 16:19:43;;;;;;;29.67;5.18;;;;;;;;;;5133804;27;20038;-42
2023/01/13 16:22:14;;;;;;;24.70;5.18;;;;;;;;;;5117872;27;20029;-42
2023/01/13 16:24:41;;;;;;;27.08;5.22;;;;;;;;;;5113088;28;20063;-42
2023/01/13 16:27:16;;;;;;;23.25;4.40;;;;;;;;;;5093922;28;20031;-42
2023/01/13 16:29:44;;;;;;;30.95;5.30;;;;;;;;;;5110453;28;20081;-43
2023/01/13 16:32:11;;;;;;;31.88;4.78;;;;;;;;;;5110905;28;20100;-43
2023/01/13 16:34:39;;;;;;;24.77;4.97;;;;;;;;;;5112265;28;20028;-44
2023/01/13 16:37:12;;;;;;;36.92;5.03;;;;;;;;;;5111963;28;20127;-42
2023/01/13 16:39:39;;;;;;;31.10;4.63;;;;;;;;;;5111821;28;20451;-43
2023/01/13 16:42:06;;;;;;;22.95;4.78;;;;;;;;;;5111977;28;20482;-42
2023/01/13 16:44:33;;;;;;;30.13;4.78;;;;;;;;;;5111986;28;20023;-41